ADDS METAR Data INFO
IDs: Format: Raw Decoded Include TAF

Data at: 2052 UTC 26 May 2017

KJAC 262051Z 34007KT 10SM SCT008 OVC014 05/04 A2995
KJAC 261951Z 36005KT 10SM VCSH SCT008 OVC012 04/04 A2993
KJAC 261851Z 02006KT 8SM -RA FEW005 OVC015 03/03 A2992
KJAC 261757Z 01006KT 7SM -RASN OVC017 03/03 A2991
KJAC 261651Z 01010KT 10SM -RA BKN016 OVC025 03/03 A2990
KJAC 261551Z 01012KT 8SM -RA OVC023 03/03 A2989
KJAC 261451Z 35004KT 10SM -RA OVC032 04/03 A2989
KJAC 261351Z 35004KT 10SM -RA BKN035 OVC050 03/01 A2989
KJAC 261251Z 00000KT 10SM VCSH OVC055 03/M01 A2989
KJAC 261235Z AUTO 00000KT 10SM FEW046 OVC110 02/M01 A2989 RMK AO1
KJAC 261215Z AUTO 07004KT 10SM OVC100 02/M01 A2990 RMK AO1
KJAC 261155Z AUTO 00000KT 10SM BKN110 01/M01 A2991 RMK AO1 10060 20010 52010
KJAC 261135Z AUTO 20006KT 10SM SCT070 SCT075 BKN120 01/M01 A2991 RMK AO1
KJAC 261115Z AUTO 00000KT 10SM SCT070 BKN080 BKN110 02/M01 A2990 RMK AO1
KJAC 261055Z AUTO 00000KT 10SM FEW080 BKN110 03/M01 A2990 RMK AO1
KJAC 261035Z AUTO 12003KT 10SM BKN120 03/M02 A2989 RMK AO1
KJAC 261015Z AUTO 08006KT 10SM BKN120 02/M02 A2990 RMK AO1
KJAC 260955Z AUTO 02006KT 10SM CLR 02/M01 A2989 RMK AO1
KJAC 260935Z AUTO 36003KT 10SM CLR 02/M02 A2989 RMK AO1
KJAC 260915Z AUTO 00000KT 10SM CLR 02/M02 A2988 RMK AO1
KJAC 260855Z AUTO 06003KT 10SM CLR 02/M02 A2988 RMK AO1 52003
KJAC 260835Z AUTO 00000KT 10SM CLR 02/M02 A2988 RMK AO1
KJAC 260815Z AUTO 00000KT 10SM CLR 02/M02 A2988 RMK AO1
KJAC 260755Z AUTO 05006KT 10SM CLR 03/M02 A2987 RMK AO1
KJAC 260735Z AUTO 36004KT 10SM CLR 03/M01 A2987 RMK AO1
KJAC 260715Z AUTO 35003KT 10SM CLR 03/M02 A2987 RMK AO1
KJAC 260655Z AUTO 00000KT 10SM CLR 05/M02 A2987 RMK AO1
KJAC 260635Z AUTO 03004KT 10SM BKN110 06/M01 A2987 RMK AO1
KJAC 260615Z AUTO 01006KT 10SM OVC110 06/M01 A2988 RMK AO1
KJAC 260555Z AUTO 01008KT 10SM OVC110 06/M01 A2987 RMK AO1 10120 20060 52014
KJAC 260535Z AUTO 02011KT 10SM OVC110 06/M01 A2987 RMK AO1
KJAC 260515Z AUTO 02011KT 10SM BKN120 06/M01 A2987 RMK AO1
KJAC 260455Z AUTO 02012KT 10SM CLR 07/M01 A2987 RMK AO1
KJAC 260435Z AUTO 01011KT 10SM BKN100 08/M01 A2987 RMK AO1
KJAC 260415Z AUTO 01010KT 10SM OVC100 08/M02 A2986 RMK AO1
KJAC 260355Z AUTO 01011G14KT 10SM OVC080 09/M02 A2986 RMK AO1
KJAC 260335Z AUTO 36007KT 10SM OVC080 08/M02 A2985 RMK AO1
KJAC 260315Z AUTO 04007KT 10SM BKN080 OVC100 09/M03 A2984 RMK AO1
KJAC 260255Z AUTO 03007KT 10SM OVC080 09/M03 A2983 RMK AO1 52014
KJAC 260251Z 36007KT 10SM VCSH SCT070 09/M03 A2983
KJAC 260151Z 02007KT 10SM VCSH SCT070 11/M06 A2981
KJAC 260051Z 36006KT 10SM SCT095 11/M05 A2980
KJAC 252351Z 04005KT 10SM SCT085 12/M08 A2979
KJAC 252251Z 00000KT 10SM SCT085 12/M08 A2979
KJAC 252151Z 00000KT 10SM SCT085 12/M08 A2979
KJAC 252051Z 11006KT 10SM SCT085 12/M09 A2978
KJAC 251951Z 15010G20KT 10SM SCT085 12/M09 A2977
KJAC 251851Z 27008KT 10SM BKN085 11/M09 A2977
KJAC 251751Z 27015G25KT 10SM FEW110 11/M11 A2976
KJAC 251651Z 21009KT 10SM CLR 11/M09 A2975
KJAC 251551Z 24010G20KT 10SM CLR 09/M09 A2974
KJAC 251451Z 15004KT 10SM CLR 08/M08 A2973
KJAC 251351Z 00000KT 10SM CLR 06/M08 A2973
KJAC 251251Z 00000KT 10SM CLR 01/M08 A2971
KJAC 251235Z AUTO 05003KT 10SM CLR 01/M08 A2971 RMK AO1
KJAC 251215Z AUTO 35003KT 10SM CLR 03/M08 A2970 RMK AO1
KJAC 251155Z AUTO 00000KT 10SM CLR 03/M08 A2969 RMK AO1 10110 20020 52020
KJAC 251135Z AUTO 34004KT 10SM CLR 03/M08 A2968 RMK AO1
KJAC 251115Z AUTO 35007KT 10SM CLR 03/M08 A2968 RMK AO1
KJAC 251055Z AUTO 25005KT 10SM CLR 04/M09 A2966 RMK AO1
KJAC 251035Z AUTO 24009KT 10SM CLR 04/M09 A2965 RMK AO1
KJAC 251015Z AUTO 23010KT 10SM CLR 06/M09 A2964 RMK AO1
KJAC 250955Z AUTO 25009KT 10SM CLR 07/M10 A2964 RMK AO1
KJAC 250935Z AUTO 27014G19KT 10SM CLR 07/M11 A2963 RMK AO1
KJAC 250915Z AUTO 24009KT 10SM CLR 06/M11 A2962 RMK AO1
KJAC 250855Z AUTO 24008KT 10SM CLR 07/M11 A2963 RMK AO1 52007


Page loaded:  20:52 UTC  |   01:52 PM Pacific  |   02:52 PM Mountain  |   03:52 PM Central  |   04:52 PM Eastern

 

ADVISORIES

FORECASTS

FORECASTS

OBSERVATIONS

USER TOOLS

ABOUT US